South Harrison Township, New Jersey
Current Conditions -  °F | °C
As of 7:54 PM on Wednesday 22 Oct 2014 (Local Time) from KPHL Reporting Station
Moderate Rain Moderate Rain  
Wind Chill: 54°   Ceiling: 3800
Heat Index: 54°   Visibility: 7mi
Dew Point: 50°   Wind: 15mph
Humidity: 86%   Direction: 340°NNW
Pressure: 29.84"   Gusts: NA
Location:  39.7176°N, 75.2231°W
Report Text: KPHL 222354Z 34013KT 7SM RA BKN038 OVC050 12/10 A2984 RMK AO2 SLP106 P0001 60004 T01220100 10133 20122 50001 $
Loading
Personal Weather Stations






























Interactive Weather Map
Tropical Storm Tracking
New forecast layout! Learn more

10-Day Weather Forecast

Advertisements
Track Severe Weather on mobile